createdAt,value
2022-10-24T00:00:26.966Z,951.41
2022-10-24T00:01:26.900Z,951.34
2022-10-24T00:02:26.930Z,951.47
2022-10-24T00:03:26.884Z,951.71
2022-10-24T00:04:26.875Z,951.81
2022-10-24T00:05:26.893Z,951.68
2022-10-24T00:06:26.860Z,951.74
2022-10-24T00:07:26.853Z,951.75
2022-10-24T00:08:26.842Z,951.71
2022-10-24T00:09:26.837Z,951.79
2022-10-24T00:10:26.829Z,951.72
2022-10-24T00:11:26.822Z,951.8
2022-10-24T00:12:26.816Z,951.74
2022-10-24T00:13:26.805Z,951.86
2022-10-24T00:14:26.796Z,951.88
2022-10-24T00:15:26.790Z,951.88
2022-10-24T00:16:26.780Z,951.87
2022-10-24T00:17:26.773Z,951.81
2022-10-24T00:18:26.767Z,952
2022-10-24T00:19:26.756Z,952.04
2022-10-24T00:20:26.750Z,951.98
2022-10-24T00:21:26.764Z,952.05
2022-10-24T00:22:26.735Z,952.19
2022-10-24T00:23:26.725Z,952.17
2022-10-24T00:24:26.718Z,952.19
2022-10-24T00:25:26.710Z,952.13
2022-10-24T00:26:26.704Z,952.15
2022-10-24T00:27:26.693Z,952.2
2022-10-24T00:28:26.688Z,952.17
2022-10-24T00:29:26.678Z,952.23
2022-10-24T00:30:26.669Z,952.17
2022-10-24T00:31:26.660Z,952.27
2022-10-24T00:32:26.653Z,952.28
2022-10-24T00:33:26.643Z,952.25
2022-10-24T00:34:26.637Z,952.17
2022-10-24T00:35:26.626Z,952.1
2022-10-24T00:36:26.621Z,951.99
2022-10-24T00:37:26.638Z,951.83
2022-10-24T00:38:26.605Z,951.85
2022-10-24T00:39:26.594Z,951.8
2022-10-24T00:40:26.588Z,951.72
2022-10-24T00:41:26.576Z,951.84
2022-10-24T00:42:26.570Z,951.73
2022-10-24T00:43:26.564Z,951.68
2022-10-24T00:44:26.554Z,951.64
2022-10-24T00:45:26.593Z,951.51
2022-10-24T00:46:26.535Z,951.37
2022-10-24T00:47:26.526Z,951.33
2022-10-24T00:48:26.517Z,951.16
2022-10-24T00:49:26.508Z,951.07
2022-10-24T00:50:26.501Z,951.12
2022-10-24T00:51:26.494Z,951.13
2022-10-24T00:52:26.484Z,951.28
2022-10-24T00:53:26.497Z,951.4
2022-10-24T00:54:26.466Z,951.35
2022-10-24T00:55:26.456Z,951.3
2022-10-24T00:56:26.448Z,951.23
2022-10-24T00:57:26.447Z,951.27
2022-10-24T00:58:26.431Z,951.23
2022-10-24T00:59:26.421Z,951.26
2022-10-24T01:00:26.477Z,951.25
2022-10-24T01:01:26.435Z,951.24
2022-10-24T01:02:26.395Z,951.22
2022-10-24T01:03:26.384Z,951.25
2022-10-24T01:04:26.376Z,951.15
2022-10-24T01:05:26.369Z,951.18
2022-10-24T01:06:26.361Z,951.18
2022-10-24T01:07:26.349Z,951.23
2022-10-24T01:08:26.342Z,951.16
2022-10-24T01:09:26.358Z,951.19
2022-10-24T01:10:26.359Z,951.2
2022-10-24T01:11:26.316Z,951.18
2022-10-24T01:12:26.305Z,951.12
2022-10-24T01:13:26.298Z,951.12
2022-10-24T01:14:26.286Z,951.14
2022-10-24T01:15:26.279Z,951.09
2022-10-24T01:16:26.269Z,951.09
2022-10-24T01:17:26.262Z,951.07
2022-10-24T01:18:26.252Z,951.09
2022-10-24T01:19:26.246Z,951.06
2022-10-24T01:20:26.234Z,951.11
2022-10-24T01:21:26.232Z,951.09
2022-10-24T01:22:26.217Z,951.12
2022-10-24T01:23:26.209Z,951.07
2022-10-24T01:24:26.197Z,951.08
2022-10-24T01:25:26.214Z,951.11
2022-10-24T01:26:26.179Z,951.08
2022-10-24T01:27:26.172Z,951.05
2022-10-24T01:28:26.161Z,951.07
2022-10-24T01:29:26.152Z,951.04
2022-10-24T01:30:26.143Z,951.07
2022-10-24T01:31:26.134Z,951.15
2022-10-24T01:32:26.123Z,951.21
2022-10-24T01:33:26.125Z,951.25
2022-10-24T01:34:26.105Z,951.16
2022-10-24T01:35:26.142Z,951.2
2022-10-24T01:36:26.085Z,951.19
2022-10-24T01:37:26.078Z,951.18
2022-10-24T01:38:26.069Z,951.19
2022-10-24T01:39:26.061Z,951.18
2022-10-24T01:40:26.068Z,951.17
2022-10-24T01:41:26.073Z,951.13
2022-10-24T01:42:26.031Z,951.14
2022-10-24T01:43:26.022Z,951.17
2022-10-24T01:44:26.011Z,951.13
2022-10-24T01:45:26.005Z,951.16
2022-10-24T01:46:25.994Z,951.19
2022-10-24T01:47:25.985Z,951.2
2022-10-24T01:48:25.977Z,951.16
2022-10-24T01:49:25.967Z,951.17
2022-10-24T01:50:25.955Z,951.21
2022-10-24T01:51:25.948Z,951.18
2022-10-24T01:52:25.938Z,951.21
2022-10-24T01:53:25.930Z,951.19
2022-10-24T01:54:25.918Z,951.27
2022-10-24T01:55:25.909Z,951.33
2022-10-24T01:56:25.899Z,951.32
2022-10-24T01:57:25.919Z,951.28
2022-10-24T01:58:25.878Z,951.31
2022-10-24T01:59:25.873Z,951.32
2022-10-24T02:00:25.947Z,951.3
2022-10-24T02:01:25.916Z,951.29
2022-10-24T02:02:25.847Z,951.28
2022-10-24T02:03:25.831Z,951.28
2022-10-24T02:04:25.823Z,951.24
2022-10-24T02:05:25.812Z,951.24
2022-10-24T02:06:25.802Z,951.26
2022-10-24T02:07:25.791Z,951.28
2022-10-24T02:08:25.783Z,951.3
2022-10-24T02:09:25.773Z,951.25
2022-10-24T02:10:25.764Z,951.27
2022-10-24T02:11:25.752Z,951.23
2022-10-24T02:12:25.744Z,951.21
2022-10-24T02:13:25.759Z,951.21
2022-10-24T02:14:25.725Z,951.2
2022-10-24T02:15:25.715Z,951.26
2022-10-24T02:16:25.706Z,951.27
2022-10-24T02:17:25.733Z,951.27
2022-10-24T02:18:25.687Z,951.28
2022-10-24T02:19:25.676Z,951.24
2022-10-24T02:20:25.667Z,951.28
2022-10-24T02:21:25.659Z,951.28
2022-10-24T02:22:25.649Z,951.28
2022-10-24T02:23:25.641Z,951.29
2022-10-24T02:24:25.625Z,951.31
2022-10-24T02:25:25.615Z,951.27
2022-10-24T02:26:25.611Z,951.23
2022-10-24T02:27:25.594Z,951.23
2022-10-24T02:28:25.587Z,951.24
2022-10-24T02:29:25.601Z,951.25
2022-10-24T02:30:25.567Z,951.19
2022-10-24T02:31:25.555Z,951.19
2022-10-24T02:32:25.546Z,951.3
2022-10-24T02:33:25.536Z,951.27
2022-10-24T02:34:25.524Z,951.15
2022-10-24T02:35:25.517Z,951.22
2022-10-24T02:36:25.508Z,951.19
2022-10-24T02:37:25.494Z,951.21
2022-10-24T02:38:25.487Z,951.17
2022-10-24T02:39:25.474Z,951.23
2022-10-24T02:40:25.467Z,951.26
2022-10-24T02:41:25.456Z,951.25
2022-10-24T02:42:25.548Z,951.21
2022-10-24T02:43:25.433Z,951.26
2022-10-24T02:44:25.424Z,951.23
2022-10-24T02:45:25.437Z,951.2
2022-10-24T02:46:25.404Z,951.28
2022-10-24T02:47:25.392Z,951.35
2022-10-24T02:48:25.384Z,951.3
2022-10-24T02:49:25.371Z,951.37
2022-10-24T02:50:25.363Z,951.38
2022-10-24T02:51:25.351Z,951.42
2022-10-24T02:52:25.341Z,951.47
2022-10-24T02:53:25.332Z,951.36
2022-10-24T02:54:25.322Z,951.37
2022-10-24T02:55:25.313Z,951.36
2022-10-24T02:56:25.299Z,951.35
2022-10-24T02:57:25.292Z,951.37
2022-10-24T02:58:25.281Z,951.29
2022-10-24T02:59:25.271Z,951.32
2022-10-24T03:00:25.338Z,951.31
2022-10-24T03:01:25.373Z,951.33
2022-10-24T03:02:25.238Z,951.36
2022-10-24T03:03:25.231Z,951.37
2022-10-24T03:04:25.222Z,951.4
2022-10-24T03:05:25.209Z,951.39
2022-10-24T03:06:25.198Z,951.37
2022-10-24T03:07:25.262Z,951.36
2022-10-24T03:08:25.177Z,951.36
2022-10-24T03:09:25.168Z,951.36
2022-10-24T03:10:25.156Z,951.28
2022-10-24T03:11:25.147Z,951.35
2022-10-24T03:12:25.136Z,951.31
2022-10-24T03:13:25.128Z,951.31
2022-10-24T03:14:25.116Z,951.28
2022-10-24T03:15:25.107Z,951.32
2022-10-24T03:16:25.095Z,951.29
2022-10-24T03:17:25.112Z,951.33
2022-10-24T03:18:25.073Z,951.33
2022-10-24T03:19:25.065Z,951.35
2022-10-24T03:20:25.054Z,951.3
2022-10-24T03:21:25.044Z,951.31
2022-10-24T03:22:28.561Z,951.34
2022-10-24T03:23:25.023Z,951.31
2022-10-24T03:24:30.970Z,951.32
2022-10-24T03:25:25.004Z,951.31
2022-10-24T03:26:24.992Z,951.26
2022-10-24T03:27:24.982Z,951.32
2022-10-24T03:28:24.971Z,951.32
2022-10-24T03:29:24.961Z,951.38
2022-10-24T03:30:24.949Z,951.35
2022-10-24T03:31:24.940Z,951.29
2022-10-24T03:49:53.878Z,951.29
2022-10-24T03:50:53.841Z,951.28
2022-10-24T03:51:53.823Z,951.25
2022-10-24T03:52:53.811Z,951.22
2022-10-24T03:53:53.799Z,951.19
2022-10-24T03:54:53.789Z,951.16
2022-10-24T03:55:53.773Z,951.2
2022-10-24T03:56:53.759Z,951.22
2022-10-24T03:57:53.746Z,951.21
2022-10-24T03:58:53.739Z,951.18
2022-10-24T03:59:53.721Z,951.14
2022-10-24T04:00:53.748Z,951.19
2022-10-24T04:01:53.727Z,951.23
2022-10-24T04:02:53.689Z,951.2
2022-10-24T04:03:53.675Z,951.21
2022-10-24T04:04:53.668Z,951.23
2022-10-24T04:05:53.679Z,951.2
2022-10-24T04:06:53.642Z,951.24
2022-10-24T04:07:53.629Z,951.23
2022-10-24T04:08:53.619Z,951.19
2022-10-24T04:09:53.607Z,951.22
2022-10-24T04:10:53.596Z,951.21
2022-10-24T04:11:53.584Z,951.22
2022-10-24T04:12:53.575Z,951.18
2022-10-24T04:13:53.609Z,951.18
2022-10-24T04:14:53.553Z,951.2
2022-10-24T04:15:53.541Z,951.16
2022-10-24T04:16:53.532Z,951.21
2022-10-24T04:17:53.520Z,951.27
2022-10-24T04:18:53.514Z,951.25
2022-10-24T04:19:53.498Z,951.19
2022-10-24T04:20:53.490Z,951.25
2022-10-24T04:21:53.500Z,951.19
2022-10-24T04:22:53.468Z,951.12
2022-10-24T04:23:53.456Z,951.12
2022-10-24T04:24:53.447Z,951.16
2022-10-24T04:25:53.435Z,951.18
2022-10-24T04:26:53.426Z,951.18
2022-10-24T04:27:53.415Z,951.31
2022-10-24T04:28:53.405Z,951.32
2022-10-24T04:29:53.395Z,951.33
2022-10-24T04:30:53.385Z,951.29
2022-10-24T04:31:53.373Z,951.33
2022-10-24T04:32:53.363Z,951.31
2022-10-24T04:33:53.352Z,951.35
2022-10-24T04:34:53.343Z,951.33
2022-10-24T04:35:53.332Z,951.25
2022-10-24T04:36:53.323Z,951.2
2022-10-24T04:37:53.335Z,951.35
2022-10-24T04:38:53.327Z,951.3
2022-10-24T04:39:53.290Z,951.38
2022-10-24T04:40:53.281Z,951.21
2022-10-24T04:41:53.275Z,951.23
2022-10-24T04:42:53.259Z,951.15
2022-10-24T04:43:53.250Z,951.15
2022-10-24T04:44:53.237Z,951.12
2022-10-24T04:45:53.230Z,951.13
2022-10-24T04:46:53.217Z,951.1
2022-10-24T04:47:53.208Z,951.06
2022-10-24T04:48:53.196Z,951.04
2022-10-24T04:49:53.192Z,951.03
2022-10-24T04:50:53.178Z,951.05
2022-10-24T04:51:53.173Z,951
2022-10-24T04:52:53.155Z,951.07
2022-10-24T04:53:53.198Z,951.1
2022-10-24T04:54:53.134Z,950.99
2022-10-24T04:55:53.126Z,951.08
2022-10-24T04:56:53.115Z,951.07
2022-10-24T04:57:53.107Z,951.04
2022-10-24T04:58:53.094Z,951.03
2022-10-24T04:59:53.086Z,950.98
2022-10-24T05:00:53.073Z,951.03
2022-10-24T05:01:53.222Z,951.05
2022-10-24T05:02:54.207Z,951.04
2022-10-24T05:03:53.120Z,951.15
2022-10-24T05:04:53.034Z,951.12
2022-10-24T05:05:53.023Z,951.17
2022-10-24T05:06:53.013Z,951.13
2022-10-24T05:07:53.009Z,951.12
2022-10-24T05:08:52.993Z,951.14
2022-10-24T05:09:53.007Z,951.14
2022-10-24T05:10:52.972Z,951.11
2022-10-24T05:11:52.964Z,951.2
2022-10-24T05:12:52.951Z,951.3
2022-10-24T05:13:52.941Z,951.23
2022-10-24T05:14:52.929Z,951.26
2022-10-24T05:15:52.922Z,951.17
2022-10-24T05:16:52.910Z,951.26
2022-10-24T05:17:52.900Z,951.24
2022-10-24T05:18:52.888Z,951.26
2022-10-24T05:19:52.880Z,951.21
2022-10-24T05:20:52.869Z,951.21
2022-10-24T05:21:52.859Z,951.22
2022-10-24T05:22:52.848Z,951.16
2022-10-24T05:23:52.839Z,951.15
2022-10-24T05:24:52.828Z,951.1
2022-10-24T05:25:52.843Z,951.05
2022-10-24T05:26:52.807Z,951.13
2022-10-24T05:27:52.802Z,951.09
2022-10-24T05:28:52.952Z,951.1
2022-10-24T05:29:52.782Z,951.09
2022-10-24T05:30:53.276Z,951.08
2022-10-24T05:31:53.265Z,951.05
2022-10-24T05:32:53.260Z,951.02
2022-10-24T05:33:53.244Z,951.05
2022-10-24T05:34:53.237Z,951
2022-10-24T05:35:53.226Z,951.09
2022-10-24T05:36:53.216Z,951.07
2022-10-24T05:37:53.204Z,951.07
2022-10-24T05:38:53.195Z,951.12
2022-10-24T05:39:53.196Z,951.14
2022-10-24T05:40:53.175Z,951.15
2022-10-24T05:41:55.223Z,951.2
2022-10-24T05:42:53.152Z,951.27
2022-10-24T05:43:53.140Z,951.25
2022-10-24T05:44:53.132Z,951.21
2022-10-24T05:45:53.123Z,951.2
2022-10-24T05:46:53.115Z,951.11
2022-10-24T05:47:53.100Z,951.12
2022-10-24T05:48:53.092Z,951.09
2022-10-24T05:49:53.079Z,951.14
2022-10-24T05:50:53.071Z,951.09
2022-10-24T05:51:53.059Z,951.09
2022-10-24T05:52:53.054Z,951.14
2022-10-24T05:53:53.038Z,951.14
2022-10-24T05:55:06.613Z,951.12
2022-10-24T05:55:53.017Z,951.1
2022-10-24T05:56:53.008Z,951.11
2022-10-24T05:57:53.023Z,951.1
2022-10-24T05:58:52.989Z,951.11
2022-10-24T05:59:52.975Z,951.08
2022-10-24T06:00:54.180Z,951.12
2022-10-24T06:01:53.061Z,951.15
2022-10-24T06:02:52.947Z,951.14
2022-10-24T06:03:52.936Z,951.09
2022-10-24T06:04:52.925Z,951.08
2022-10-24T06:05:52.914Z,951.14
2022-10-24T06:06:52.906Z,951.07
2022-10-24T06:07:52.894Z,951.06
2022-10-24T06:08:52.885Z,951.02
2022-10-24T06:09:52.873Z,951.06
2022-10-24T06:10:52.864Z,950.99
2022-10-24T06:11:52.855Z,951.01
2022-10-24T06:12:52.847Z,951.04
2022-10-24T06:13:52.857Z,951.07
2022-10-24T06:14:52.824Z,951.08
2022-10-24T06:15:52.810Z,951.05
2022-10-24T06:16:52.802Z,951.1
2022-10-24T06:17:52.790Z,951.06
2022-10-24T06:18:52.783Z,951.09
2022-10-24T06:19:52.774Z,951.03
2022-10-24T06:20:54.075Z,951
2022-10-24T06:21:52.751Z,951.01
2022-10-24T06:22:52.738Z,951.05
2022-10-24T06:23:52.729Z,951
2022-10-24T06:24:52.717Z,951.12
2022-10-24T06:25:52.710Z,951.1
2022-10-24T06:26:52.697Z,951.16
2022-10-24T06:27:52.692Z,951.17
2022-10-24T06:28:52.676Z,951.18
2022-10-24T06:29:52.694Z,951.19
2022-10-24T06:30:52.659Z,951.2
2022-10-24T06:31:52.651Z,951.14
2022-10-24T06:32:52.636Z,951.11
2022-10-24T06:33:52.630Z,951.13
2022-10-24T06:34:52.617Z,951.16
2022-10-24T06:35:52.608Z,951.18
2022-10-24T06:36:52.598Z,951.16
2022-10-24T06:37:52.870Z,951.18
2022-10-24T06:38:52.576Z,951.12
2022-10-24T06:39:52.570Z,951.13
2022-10-24T06:40:52.556Z,951.22
2022-10-24T06:41:52.548Z,951.17
2022-10-24T06:42:52.537Z,951.21
2022-10-24T06:43:52.529Z,951.19
2022-10-24T06:44:52.548Z,951.25
2022-10-24T06:45:52.533Z,951.25
2022-10-24T06:46:52.496Z,951.29
2022-10-24T06:47:53.474Z,951.2
2022-10-24T06:48:52.477Z,951.09
2022-10-24T06:49:52.468Z,951.18
2022-10-24T06:50:52.459Z,951.2
2022-10-24T06:51:52.448Z,951.2
2022-10-24T06:52:52.857Z,951.28
2022-10-24T06:53:52.848Z,951.23
2022-10-24T06:54:52.835Z,951.27
2022-10-24T06:55:52.826Z,951.29
2022-10-24T06:56:52.817Z,951.29
2022-10-24T06:57:52.807Z,951.29
2022-10-24T06:58:52.798Z,951.36
2022-10-24T06:59:52.788Z,951.36
2022-10-24T07:00:52.815Z,951.44
2022-10-24T07:01:52.984Z,951.37
2022-10-24T07:02:52.759Z,951.44
2022-10-24T07:03:52.748Z,951.37
2022-10-24T07:04:52.738Z,951.44
2022-10-24T07:05:52.733Z,951.45
2022-10-24T07:06:52.724Z,951.48
2022-10-24T07:07:52.710Z,951.48
2022-10-24T07:08:52.699Z,951.45
2022-10-24T07:09:52.693Z,951.47
2022-10-24T07:10:52.681Z,951.5
2022-10-24T07:11:52.673Z,951.53
2022-10-24T07:12:52.661Z,951.6
2022-10-24T07:13:54.178Z,951.65
2022-10-24T07:14:52.643Z,951.6
2022-10-24T07:15:52.634Z,951.61
2022-10-24T07:16:52.625Z,951.65
2022-10-24T07:17:52.658Z,951.63
2022-10-24T07:18:52.607Z,951.66
2022-10-24T07:19:52.595Z,951.75
2022-10-24T07:20:52.591Z,951.79
2022-10-24T07:21:52.575Z,951.76
2022-10-24T07:22:52.569Z,951.77
2022-10-24T07:23:52.558Z,951.81
2022-10-24T07:24:52.550Z,951.79
2022-10-24T07:25:52.539Z,951.93
2022-10-24T07:26:52.531Z,951.97
2022-10-24T07:27:52.521Z,951.93
2022-10-24T07:28:52.573Z,951.95
2022-10-24T07:29:52.507Z,951.87
2022-10-24T07:30:52.494Z,951.86
2022-10-24T07:31:52.485Z,951.88
2022-10-24T07:32:52.476Z,951.84
2022-10-24T07:33:52.490Z,951.83
2022-10-24T07:34:52.458Z,951.78
2022-10-24T07:35:52.448Z,951.88
2022-10-24T07:36:52.441Z,951.91
2022-10-24T07:37:52.429Z,951.85
2022-10-24T07:38:52.427Z,951.95
2022-10-24T07:39:52.410Z,951.99
2022-10-24T07:40:52.404Z,952.04
2022-10-24T07:41:52.391Z,952.04
2022-10-24T07:42:52.385Z,952.11
2022-10-24T07:43:52.374Z,952.06
2022-10-24T07:44:52.366Z,952.1
2022-10-24T07:45:52.562Z,952.03
2022-10-24T07:46:52.349Z,952.1
2022-10-24T07:47:52.340Z,952.11
2022-10-24T07:48:52.333Z,952.07
2022-10-24T07:49:52.347Z,952.12
2022-10-24T07:50:52.314Z,952.12
2022-10-24T07:51:52.303Z,952.15
2022-10-24T07:52:52.296Z,952.18
2022-10-24T07:53:52.289Z,952.21
2022-10-24T07:54:52.278Z,952.17
2022-10-24T07:55:52.268Z,952.17
2022-10-24T07:56:54.085Z,952.15
2022-10-24T07:57:52.251Z,952.19
2022-10-24T07:58:52.242Z,952.2
2022-10-24T07:59:52.232Z,952.26
2022-10-24T08:00:52.227Z,952.21
2022-10-24T08:01:52.214Z,952.25
2022-10-24T08:02:52.210Z,952.28
2022-10-24T08:03:52.200Z,952.19
2022-10-24T08:04:52.190Z,952.17
2022-10-24T08:05:52.206Z,952.1
2022-10-24T08:06:52.173Z,951.99
2022-10-24T08:07:55.783Z,951.96
2022-10-24T08:08:52.156Z,951.94
2022-10-24T08:09:52.148Z,951.9
2022-10-24T08:10:52.172Z,951.9
2022-10-24T08:11:52.131Z,951.89
2022-10-24T08:12:52.120Z,951.9
2022-10-24T08:13:52.116Z,951.94
2022-10-24T08:14:52.103Z,951.8
2022-10-24T08:15:52.098Z,951.8
2022-10-24T08:16:52.087Z,951.74
2022-10-24T08:17:52.078Z,951.75
2022-10-24T08:18:52.068Z,951.77
2022-10-24T08:19:52.063Z,951.8
2022-10-24T08:20:52.053Z,951.78
2022-10-24T08:21:52.070Z,951.79
2022-10-24T08:22:52.034Z,951.79
2022-10-24T08:23:52.031Z,951.79
2022-10-24T08:24:52.018Z,951.77
2022-10-24T08:25:52.011Z,951.74
2022-10-24T08:26:52.000Z,951.74
2022-10-24T08:27:51.993Z,951.66
2022-10-24T08:28:51.984Z,951.54
2022-10-24T08:29:51.976Z,951.45
2022-10-24T08:30:51.966Z,951.45
2022-10-24T08:31:51.958Z,951.43
2022-10-24T08:32:51.970Z,951.51
2022-10-24T08:33:51.943Z,951.49
2022-10-24T08:34:51.933Z,951.44
2022-10-24T08:35:51.925Z,951.61
2022-10-24T08:36:51.916Z,951.47
2022-10-24T08:37:51.934Z,951.48
2022-10-24T08:38:51.898Z,951.46
2022-10-24T08:39:51.892Z,951.48
2022-10-24T08:40:51.886Z,951.4
2022-10-24T08:41:53.712Z,951.44
2022-10-24T08:42:51.869Z,951.46
2022-10-24T08:43:51.857Z,951.49
2022-10-24T08:44:51.847Z,951.37
2022-10-24T08:45:51.838Z,951.47
2022-10-24T08:46:51.828Z,951.35
2022-10-24T08:47:51.824Z,951.29
2022-10-24T08:48:51.812Z,951.32
2022-10-24T08:49:51.803Z,951.41
2022-10-24T08:50:51.794Z,951.44
2022-10-24T08:51:51.787Z,951.67
2022-10-24T08:52:51.787Z,951.77
2022-10-24T08:53:51.795Z,951.78
2022-10-24T08:54:51.760Z,951.85
2022-10-24T08:55:51.753Z,951.88
2022-10-24T08:56:51.742Z,951.86
2022-10-24T08:57:51.734Z,951.8
2022-10-24T08:58:51.727Z,951.74
2022-10-24T08:59:51.716Z,951.79
2022-10-24T09:00:51.708Z,951.77
2022-10-24T09:01:52.739Z,951.8
2022-10-24T09:02:52.692Z,951.83
2022-10-24T09:03:56.781Z,951.8
2022-10-24T09:04:52.593Z,951.74
2022-10-24T09:05:52.582Z,951.77
2022-10-24T09:06:52.575Z,951.68
2022-10-24T09:07:52.567Z,951.73
2022-10-24T09:08:52.559Z,951.78
2022-10-24T09:09:52.569Z,951.83
2022-10-24T09:10:52.642Z,951.68
2022-10-24T09:11:52.529Z,951.63
2022-10-24T09:12:52.523Z,951.66
2022-10-24T09:13:52.516Z,951.77
2022-10-24T09:14:52.505Z,951.8
2022-10-24T09:15:52.495Z,951.82
2022-10-24T09:16:52.489Z,951.9
2022-10-24T09:17:52.477Z,951.96
2022-10-24T09:18:52.468Z,952.02
2022-10-24T09:19:52.458Z,952.09
2022-10-24T09:20:52.500Z,952.15
2022-10-24T09:21:52.440Z,952.17
2022-10-24T09:22:52.433Z,952.27
2022-10-24T09:23:52.423Z,952.17
2022-10-24T09:24:52.414Z,952.25
2022-10-24T09:25:52.431Z,952.22
2022-10-24T09:26:52.396Z,952.2
2022-10-24T09:27:52.386Z,952.23
2022-10-24T09:28:52.378Z,952.22
2022-10-24T09:29:52.366Z,952.21
2022-10-24T09:30:52.360Z,952.33
2022-10-24T09:31:52.349Z,952.21
2022-10-24T09:32:52.341Z,952.22
2022-10-24T09:33:52.336Z,952.25
2022-10-24T09:34:52.323Z,952.38
2022-10-24T09:35:52.313Z,952.24
2022-10-24T09:36:52.305Z,952.29
2022-10-24T09:37:52.610Z,952.3
2022-10-24T09:38:52.288Z,952.29
2022-10-24T09:39:52.277Z,952.3
2022-10-24T09:40:52.269Z,952.14
2022-10-24T09:41:52.286Z,952.02
2022-10-24T09:42:52.251Z,951.81
2022-10-24T09:43:52.240Z,951.77
2022-10-24T09:44:52.234Z,951.65
2022-10-24T09:45:52.222Z,951.52
2022-10-24T09:46:52.216Z,951.42
2022-10-24T09:47:52.204Z,951.45
2022-10-24T09:48:52.197Z,951.52
2022-10-24T09:49:52.187Z,951.37
2022-10-24T09:50:52.177Z,951.2
2022-10-24T09:51:52.173Z,951.25
2022-10-24T09:52:52.160Z,951.17
2022-10-24T09:53:52.150Z,951.21
2022-10-24T09:54:52.140Z,951.29
2022-10-24T09:55:52.133Z,951.25
2022-10-24T09:56:54.363Z,951.35
2022-10-24T09:57:52.137Z,951.27
2022-10-24T09:58:52.103Z,951.27
2022-10-24T09:59:52.096Z,951.28
2022-10-24T10:00:52.085Z,951.13
2022-10-24T10:01:52.237Z,951.16
2022-10-24T10:02:52.066Z,951.1
2022-10-24T10:03:52.058Z,951.17
2022-10-24T10:04:52.049Z,951.14
2022-10-24T10:05:52.039Z,951.04
2022-10-24T10:06:52.090Z,950.96
2022-10-24T10:07:52.021Z,950.95
2022-10-24T10:08:52.013Z,950.97
2022-10-24T10:09:54.067Z,951.05
2022-10-24T10:10:51.992Z,951.1
2022-10-24T10:12:01.892Z,951.01
2022-10-24T10:12:51.972Z,950.98
2022-10-24T10:13:51.997Z,951.14
2022-10-24T10:14:51.954Z,951.2
2022-10-24T10:15:51.946Z,951.19
2022-10-24T10:16:51.988Z,951.05
2022-10-24T10:17:51.928Z,951.14
2022-10-24T10:18:51.918Z,951.17
2022-10-24T10:19:51.909Z,951.21
2022-10-24T10:20:51.902Z,951.19
2022-10-24T10:21:51.893Z,951.25
2022-10-24T10:22:51.880Z,951.21
2022-10-24T10:23:51.885Z,951.23
2022-10-24T10:24:51.868Z,951.27
2022-10-24T10:25:51.879Z,951.3
2022-10-24T10:26:51.873Z,951.36
2022-10-24T10:27:51.836Z,951.37
2022-10-24T10:28:51.832Z,951.39
2022-10-24T10:29:51.841Z,951.41
2022-10-24T10:30:51.810Z,951.39
2022-10-24T10:31:51.833Z,951.38
2022-10-24T10:32:51.799Z,951.36
2022-10-24T10:33:51.817Z,951.41
2022-10-24T10:34:51.771Z,951.4
2022-10-24T10:35:51.761Z,951.37
2022-10-24T10:36:51.761Z,951.37
2022-10-24T10:37:51.743Z,951.32
2022-10-24T10:38:51.737Z,951.23
2022-10-24T10:39:51.723Z,951.22
2022-10-24T10:40:51.716Z,951.26
2022-10-24T10:41:51.771Z,951.26
2022-10-24T10:42:51.698Z,951.37
2022-10-24T10:43:51.688Z,951.3
2022-10-24T10:44:51.682Z,951.33
2022-10-24T10:45:51.694Z,951.4
2022-10-24T10:46:51.666Z,951.44
2022-10-24T10:47:51.654Z,951.42
2022-10-24T10:48:51.650Z,951.46
2022-10-24T10:49:51.636Z,951.46
2022-10-24T10:50:51.649Z,951.38
2022-10-24T10:51:51.619Z,951.32
2022-10-24T10:52:51.612Z,951.42
2022-10-24T10:53:51.601Z,951.41
2022-10-24T10:54:51.595Z,951.44
2022-10-24T10:55:51.583Z,951.47
2022-10-24T10:56:51.577Z,951.51
2022-10-24T10:57:51.566Z,951.58
2022-10-24T10:58:51.559Z,951.61
2022-10-24T10:59:51.550Z,951.61
2022-10-24T11:00:51.544Z,951.6
2022-10-24T11:01:51.675Z,951.63
2022-10-24T11:02:52.824Z,951.64
2022-10-24T11:03:51.513Z,951.69
2022-10-24T11:04:51.507Z,951.67
2022-10-24T11:05:51.500Z,951.65
2022-10-24T11:06:51.541Z,951.7
2022-10-24T11:07:51.482Z,951.67
2022-10-24T11:08:51.473Z,951.72
2022-10-24T11:09:51.463Z,951.69
2022-10-24T11:10:51.457Z,951.64
2022-10-24T11:11:51.447Z,951.61
2022-10-24T11:12:51.442Z,951.6
2022-10-24T11:13:51.428Z,951.54
2022-10-24T11:14:51.422Z,951.54
2022-10-24T11:15:51.411Z,951.52
2022-10-24T11:16:51.406Z,951.57
2022-10-24T11:17:51.420Z,951.61
2022-10-24T11:18:51.388Z,951.62
2022-10-24T11:19:51.379Z,951.7
2022-10-24T11:20:51.372Z,951.71
2022-10-24T11:21:51.365Z,951.72
2022-10-24T11:22:51.361Z,951.75
2022-10-24T11:23:51.345Z,951.77
2022-10-24T11:24:51.340Z,951.78
2022-10-24T11:25:51.329Z,951.74
2022-10-24T11:26:51.322Z,951.72
2022-10-24T11:27:51.318Z,951.71
2022-10-24T11:28:51.304Z,951.67
2022-10-24T11:29:51.296Z,951.66
2022-10-24T11:30:51.288Z,951.63
2022-10-24T11:31:51.299Z,951.57
2022-10-24T11:32:51.271Z,951.47
2022-10-24T11:33:51.294Z,951.47
2022-10-24T11:34:51.255Z,951.43
2022-10-24T11:35:51.247Z,951.47
2022-10-24T11:36:53.342Z,951.43
2022-10-24T11:37:51.230Z,951.46
2022-10-24T11:38:51.222Z,951.46
2022-10-24T11:39:51.213Z,951.52
2022-10-24T11:40:53.593Z,951.54
2022-10-24T11:41:51.197Z,951.48
2022-10-24T11:42:51.186Z,951.53
2022-10-24T11:43:51.179Z,951.54
2022-10-24T11:44:51.172Z,951.55
2022-10-24T11:45:51.164Z,951.52
2022-10-24T11:46:51.154Z,951.51
2022-10-24T11:47:51.147Z,951.53
2022-10-24T11:48:51.139Z,951.53
2022-10-24T11:49:51.159Z,951.53
2022-10-24T11:50:51.119Z,951.55
2022-10-24T11:51:51.116Z,951.58
2022-10-24T11:52:51.103Z,951.59
2022-10-24T11:53:51.096Z,951.61
2022-10-24T11:54:51.086Z,951.67
2022-10-24T11:55:52.064Z,951.68
2022-10-24T11:56:52.052Z,951.65
2022-10-24T11:57:52.045Z,951.62
2022-10-24T11:58:52.036Z,951.6
2022-10-24T11:59:52.029Z,951.54
2022-10-24T12:00:52.020Z,951.57
2022-10-24T12:01:52.029Z,951.58
2022-10-24T12:02:52.096Z,951.55
2022-10-24T12:03:52.021Z,951.56
2022-10-24T12:04:51.988Z,951.57
2022-10-24T12:05:52.002Z,951.6
2022-10-24T12:06:51.980Z,951.61
2022-10-24T12:07:51.972Z,951.59
2022-10-24T12:08:51.965Z,951.63
2022-10-24T12:09:51.945Z,951.59
2022-10-24T12:10:51.933Z,951.65
2022-10-24T12:11:51.925Z,951.6
2022-10-24T12:12:51.916Z,951.54
2022-10-24T12:13:51.963Z,951.52
2022-10-24T12:14:51.901Z,951.52
2022-10-24T12:15:51.894Z,951.51
2022-10-24T12:16:51.883Z,951.49
2022-10-24T12:17:51.903Z,951.41
2022-10-24T12:18:51.895Z,951.42
2022-10-24T12:19:51.887Z,951.39
2022-10-24T12:20:51.876Z,951.38
2022-10-24T12:21:51.896Z,951.38
2022-10-24T12:22:51.864Z,951.36
2022-10-24T12:23:51.855Z,951.34
2022-10-24T12:24:51.846Z,951.33
2022-10-24T12:25:51.838Z,951.3
2022-10-24T12:26:51.831Z,951.31
2022-10-24T12:27:51.820Z,951.33
2022-10-24T12:28:51.813Z,951.29
2022-10-24T12:29:51.804Z,951.29
2022-10-24T12:31:51.789Z,951.38
2022-10-24T12:32:51.781Z,951.35
2022-10-24T12:33:51.772Z,951.36
2022-10-24T12:34:55.132Z,951.39
2022-10-24T12:35:51.770Z,951.35
2022-10-24T12:36:51.752Z,951.4
2022-10-24T12:37:51.766Z,951.37
2022-10-24T12:38:51.734Z,951.4
2022-10-24T12:39:54.782Z,951.36
2022-10-24T12:40:51.719Z,951.38
2022-10-24T12:41:51.711Z,951.34
2022-10-24T12:42:51.703Z,951.34
2022-10-24T12:43:51.693Z,951.3
2022-10-24T12:44:51.688Z,951.26
2022-10-24T12:45:51.677Z,951.26
2022-10-24T12:46:51.671Z,951.25
2022-10-24T12:47:51.698Z,951.29
2022-10-24T12:48:51.657Z,951.27
2022-10-24T12:49:51.951Z,951.28